Time;durP1;ratioP1;P1;durP2;ratioP2;P2;SDS_P1;SDS_P2;PMS_P1;PMS_P2;Temp;Humidity;BMP_temperature;BMP_pressure;BME280_temperature;BME280_humidity;BME280_pressure;Samples;Min_cycle;Max_cycle;Signal;HPM_P1;HPM_P2
2021/01/31 00:00:25;;;;;;;2.67;1.02;;;22.70;46.00;;;;;;5026876;28;20049;-63
2021/01/31 00:02:51;;;;;;;2.60;1.10;;;22.70;45.80;;;;;;5027750;28;20497;-63
2021/01/31 00:05:19;;;;;;;2.30;0.90;;;22.80;45.60;;;;;;5025795;28;20108;-63
2021/01/31 00:07:45;;;;;;;2.60;0.80;;;22.80;45.50;;;;;;5057848;28;20164;-65
2021/01/31 00:10:13;;;;;;;1.52;0.82;;;22.90;45.60;;;;;;5028753;28;20409;-65
2021/01/31 00:12:39;;;;;;;1.77;0.70;;;22.90;45.50;;;;;;5029688;28;20034;-65
2021/01/31 00:15:08;;;;;;;1.50;0.70;;;22.80;45.50;;;;;;5029891;28;20022;-65
2021/01/31 00:17:33;;;;;;;1.40;0.60;;;22.80;45.50;;;;;;5019067;28;20113;-65
2021/01/31 00:19:59;;;;;;;2.40;0.90;;;22.80;45.70;;;;;;5025472;28;20112;-65
2021/01/31 00:22:25;;;;;;;1.08;0.70;;;22.70;45.70;;;;;;5024691;28;20109;-65
2021/01/31 00:24:53;;;;;;;1.33;0.80;;;22.70;45.60;;;;;;5028028;28;20449;-65
2021/01/31 00:27:21;;;;;;;1.00;0.60;;;22.70;45.70;;;;;;5029283;28;20112;-65
2021/01/31 00:29:47;;;;;;;1.33;0.60;;;22.70;45.70;;;;;;5026932;28;20030;-65
2021/01/31 00:32:12;;;;;;;1.95;0.70;;;22.60;45.70;;;;;;5028989;28;20042;-65
2021/01/31 00:34:38;;;;;;;2.22;0.65;;;22.60;45.60;;;;;;5028396;28;20037;-65
2021/01/31 00:37:04;;;;;;;1.60;0.70;;;22.60;45.70;;;;;;5027616;28;20022;-65
2021/01/31 00:39:29;;;;;;;1.85;0.70;;;22.50;45.70;;;;;;5028183;28;20025;-65
2021/01/31 00:41:55;;;;;;;0.95;0.70;;;22.50;45.70;;;;;;5028682;28;20025;-65
2021/01/31 00:44:20;;;;;;;1.92;0.80;;;22.50;45.70;;;;;;5026011;28;20037;-65
2021/01/31 00:46:46;;;;;;;1.27;0.70;;;22.50;45.70;;;;;;5025672;28;20033;-65
2021/01/31 00:49:11;;;;;;;1.17;0.57;;;22.40;45.70;;;;;;5028062;28;20083;-65
2021/01/31 00:51:37;;;;;;;2.20;0.88;;;22.40;45.70;;;;;;5025827;28;20033;-65
2021/01/31 00:54:03;;;;;;;1.00;0.55;;;22.40;45.70;;;;;;5028158;28;20384;-65
2021/01/31 00:56:29;;;;;;;0.82;0.60;;;22.40;45.70;;;;;;5027854;28;20067;-65
2021/01/31 00:58:54;;;;;;;1.50;0.70;;;22.30;45.70;;;;;;5031432;28;20048;-65
2021/01/31 01:01:20;;;;;;;1.08;0.75;;;22.30;45.70;;;;;;5024862;28;20037;-65
2021/01/31 01:03:46;;;;;;;0.70;0.60;;;22.30;45.70;;;;;;5028395;28;20440;-65
2021/01/31 01:06:12;;;;;;;1.45;0.70;;;22.30;45.70;;;;;;5021217;28;20127;-65
2021/01/31 01:08:38;;;;;;;1.13;0.68;;;22.30;45.80;;;;;;5026193;28;20128;-65
2021/01/31 01:11:04;;;;;;;1.30;0.80;;;22.20;45.70;;;;;;5027957;28;20112;-64
2021/01/31 01:13:30;;;;;;;1.20;0.60;;;22.20;45.80;;;;;;5023938;28;20120;-65
2021/01/31 01:15:56;;;;;;;1.50;0.80;;;22.20;45.80;;;;;;5026463;28;20027;-65
2021/01/31 01:18:22;;;;;;;1.70;0.63;;;22.20;45.80;;;;;;5027905;28;20092;-65
2021/01/31 01:20:49;;;;;;;1.80;0.70;;;22.20;45.80;;;;;;5026433;28;20372;-65
2021/01/31 01:23:15;;;;;;;1.38;0.60;;;22.10;45.80;;;;;;5027230;28;20033;-65
2021/01/31 01:25:40;;;;;;;0.85;0.70;;;22.10;45.80;;;;;;5027488;28;20025;-65
2021/01/31 01:28:06;;;;;;;1.08;0.70;;;22.10;45.80;;;;;;5040866;28;20025;-65
2021/01/31 01:30:33;;;;;;;1.27;0.50;;;22.10;45.80;;;;;;5027433;28;20044;-65
2021/01/31 01:32:59;;;;;;;0.68;0.50;;;22.00;45.80;;;;;;5021807;28;20643;-66
2021/01/31 01:35:26;;;;;;;1.00;0.52;;;22.00;45.80;;;;;;5021465;28;20106;-65
2021/01/31 01:37:52;;;;;;;0.75;0.40;;;22.00;45.90;;;;;;5012992;28;20017;-65
2021/01/31 01:40:30;;;;;;;1.00;0.50;;;21.90;45.80;;;;;;5027150;28;20096;-65
2021/01/31 01:42:55;;;;;;;1.73;0.70;;;22.00;45.90;;;;;;5028146;28;20030;-64
2021/01/31 01:45:22;;;;;;;0.82;0.60;;;21.90;45.80;;;;;;5026628;28;20056;-65
2021/01/31 01:47:51;;;;;;;1.45;0.85;;;21.90;45.90;;;;;;5027862;28;20128;-65
2021/01/31 01:50:28;;;;;;;0.80;0.60;;;21.90;45.90;;;;;;5021877;28;20046;-64
2021/01/31 01:52:57;;;;;;;0.85;0.60;;;21.90;45.90;;;;;;5016128;28;20061;-65
2021/01/31 01:55:23;;;;;;;;;;;21.80;45.90;;;;;;5023324;28;20038;-64
2021/01/31 01:57:58;;;;;;;1.33;0.90;;;21.80;45.80;;;;;;5012933;28;20355;-65
2021/01/31 02:00:24;;;;;;;1.30;0.80;;;21.80;45.90;;;;;;5026492;28;20069;-64
2021/01/31 02:03:08;;;;;;;1.52;0.60;;;21.80;46.00;;;;;;5027918;28;20052;-65
2021/01/31 02:05:35;;;;;;;1.83;0.73;;;21.70;45.80;;;;;;5025571;28;20026;-65
2021/01/31 02:08:02;;;;;;;2.03;0.60;;;21.70;45.90;;;;;;5026299;28;20399;-65
2021/01/31 02:10:28;;;;;;;1.00;0.60;;;21.70;46.00;;;;;;5022727;28;20022;-65
2021/01/31 02:12:58;;;;;;;0.77;0.50;;;21.70;45.90;;;;;;5027183;28;20033;-64
2021/01/31 02:15:25;;;;;;;0.90;0.55;;;21.70;46.50;;;;;;5025612;28;20025;-65
2021/01/31 02:17:59;;;;;;;1.10;0.63;;;21.60;46.00;;;;;;5022711;28;20518;-65
2021/01/31 02:21:01;;;;;;;0.73;0.50;;;21.60;46.50;;;;;;5025056;28;20030;-65
2021/01/31 02:23:47;;;;;;;1.13;0.60;;;21.60;46.00;;;;;;5025860;28;20037;-65
2021/01/31 02:26:23;;;;;;;1.25;0.60;;;21.60;46.00;;;;;;5023409;28;20058;-65
2021/01/31 02:29:07;;;;;;;1.00;0.60;;;21.60;46.00;;;;;;5027205;28;20088;-65
2021/01/31 02:31:56;;;;;;;1.85;0.60;;;21.60;46.10;;;;;;5036746;28;20454;-65
2021/01/31 02:34:30;;;;;;;1.13;0.60;;;21.50;46.00;;;;;;5058528;28;20385;-65
2021/01/31 02:37:17;;;;;;;1.00;0.60;;;21.50;46.00;;;;;;5024375;28;20125;-65
2021/01/31 02:40:03;;;;;;;1.05;0.55;;;21.50;46.00;;;;;;5026108;28;20021;-65
2021/01/31 02:42:50;;;;;;;0.80;0.60;;;21.50;46.00;;;;;;5027759;28;20029;-65
2021/01/31 02:45:32;;;;;;;2.03;0.80;;;21.50;46.00;;;;;;5024715;28;20779;-64
2021/01/31 02:48:03;;;;;;;0.88;0.50;;;21.50;46.10;;;;;;5027056;28;20033;-65
2021/01/31 02:50:35;;;;;;;0.75;0.55;;;21.50;46.10;;;;;;5026657;28;20029;-65
2021/01/31 02:53:12;;;;;;;0.55;0.50;;;21.40;46.10;;;;;;5024498;28;20365;-65
2021/01/31 02:55:46;;;;;;;1.08;0.63;;;21.40;46.10;;;;;;5022471;28;20496;-65
2021/01/31 02:58:22;;;;;;;0.88;0.60;;;21.40;46.10;;;;;;5026562;28;20029;-65
2021/01/31 03:01:05;;;;;;;1.65;0.63;;;21.40;46.10;;;;;;5036281;28;20123;-65
2021/01/31 03:03:59;;;;;;;1.52;0.60;;;21.40;46.10;;;;;;5026684;28;20025;-64
2021/01/31 03:06:44;;;;;;;0.55;0.50;;;21.30;46.10;;;;;;5019025;28;20042;-65
2021/01/31 03:09:18;;;;;;;0.77;0.50;;;21.30;46.10;;;;;;5021920;28;20026;-64
2021/01/31 03:11:50;;;;;;;0.93;0.47;;;21.30;46.20;;;;;;5026467;28;20378;-64
2021/01/31 03:14:26;;;;;;;0.90;0.60;;;21.30;46.20;;;;;;5020987;28;20030;-64
2021/01/31 03:17:00;;;;;;;0.77;0.52;;;21.30;46.20;;;;;;5026144;28;20110;-64
2021/01/31 03:19:25;;;;;;;0.60;0.40;;;21.30;46.20;;;;;;5026298;28;20372;-64
2021/01/31 03:21:57;;;;;;;1.23;0.60;;;21.20;46.20;;;;;;5027681;28;20033;-65
2021/01/31 03:24:32;;;;;;;0.40;0.40;;;21.30;46.20;;;;;;5030028;28;20136;-64
2021/01/31 03:27:15;;;;;;;1.30;0.63;;;21.20;46.20;;;;;;5026600;28;20025;-64
2021/01/31 03:29:41;;;;;;;0.65;0.50;;;21.20;46.20;;;;;;5030094;28;20101;-65
2021/01/31 03:32:16;;;;;;;0.95;0.60;;;21.20;46.20;;;;;;5030046;28;20544;-64
2021/01/31 03:34:55;;;;;;;0.80;0.50;;;21.20;46.20;;;;;;5025766;28;20090;-65
2021/01/31 03:37:25;;;;;;;0.70;0.45;;;21.20;46.20;;;;;;5028230;28;20022;-65
2021/01/31 03:39:53;;;;;;;1.05;0.57;;;21.20;46.20;;;;;;5029647;28;20101;-65
2021/01/31 03:42:19;;;;;;;1.15;0.70;;;21.20;46.30;;;;;;5030397;28;20449;-64
2021/01/31 03:44:45;;;;;;;0.50;0.50;;;21.10;46.20;;;;;;5029780;28;20029;-65
2021/01/31 03:47:29;;;;;;;1.40;0.60;;;21.20;46.30;;;;;;5029199;28;20044;-64
2021/01/31 03:49:57;;;;;;;0.75;0.55;;;21.10;46.30;;;;;;5029799;28;20108;-64
2021/01/31 03:52:24;;;;;;;1.02;0.60;;;21.10;46.30;;;;;;5028742;28;20103;-65
2021/01/31 03:54:50;;;;;;;0.50;0.50;;;21.10;46.30;;;;;;5028440;28;20342;-65
2021/01/31 03:57:42;;;;;;;0.90;0.52;;;21.10;46.80;;;;;;5028555;28;20075;-64
2021/01/31 04:00:22;;;;;;;1.20;0.60;;;21.10;46.30;;;;;;5028893;28;20025;-64
2021/01/31 04:02:53;;;;;;;1.10;0.60;;;21.10;46.30;;;;;;5029986;28;20025;-64
2021/01/31 04:05:20;;;;;;;0.57;0.57;;;21.10;46.30;;;;;;5019796;28;20403;-64
2021/01/31 04:07:49;;;;;;;0.70;0.45;;;21.00;46.30;;;;;;5028103;28;20345;-64
2021/01/31 04:10:15;;;;;;;0.38;0.38;;;21.10;46.40;;;;;;5028035;28;20025;-65
2021/01/31 04:12:46;;;;;;;1.30;0.60;;;21.00;46.40;;;;;;5033234;28;20117;-64
2021/01/31 04:15:29;;;;;;;0.63;0.43;;;21.00;46.40;;;;;;5027836;28;20103;-64
2021/01/31 04:17:55;;;;;;;0.73;0.40;;;21.00;46.40;;;;;;5061016;28;20029;-64
2021/01/31 04:20:21;;;;;;;0.50;0.40;;;21.00;46.40;;;;;;5028533;28;20033;-64
2021/01/31 04:22:47;;;;;;;0.85;0.50;;;21.00;46.50;;;;;;5043127;28;20022;-64
2021/01/31 04:25:13;;;;;;;0.60;0.57;;;21.00;46.50;;;;;;5058105;28;20534;-64
2021/01/31 04:27:39;;;;;;;0.82;0.57;;;21.00;46.50;;;;;;5028941;28;20021;-64
2021/01/31 04:30:08;;;;;;;1.17;0.50;;;21.00;46.50;;;;;;5028110;28;20594;-65
2021/01/31 04:32:35;;;;;;;0.65;0.55;;;21.00;46.50;;;;;;5028413;28;20497;-64
2021/01/31 04:35:00;;;;;;;0.70;0.50;;;21.00;46.60;;;;;;5027643;28;20090;-64
2021/01/31 04:37:26;;;;;;;0.77;0.70;;;21.00;46.50;;;;;;5025902;28;20049;-64
2021/01/31 04:39:51;;;;;;;0.63;0.50;;;20.90;46.50;;;;;;5024385;28;20036;-64
2021/01/31 04:42:19;;;;;;;0.52;0.40;;;21.00;46.60;;;;;;5027439;28;20018;-64
2021/01/31 04:44:47;;;;;;;0.77;0.55;;;20.90;46.50;;;;;;5026442;28;20532;-64
2021/01/31 04:47:28;;;;;;;1.42;0.63;;;20.90;46.60;;;;;;5024138;28;20029;-65
2021/01/31 04:50:19;;;;;;;0.93;0.52;;;20.90;46.60;;;;;;5027726;28;20061;-64
2021/01/31 04:52:48;;;;;;;0.55;0.40;;;20.90;46.50;;;;;;5027381;28;20029;-64
2021/01/31 04:55:35;;;;;;;0.40;0.40;;;20.90;46.60;;;;;;5026547;28;20034;-64
2021/01/31 04:58:14;;;;;;;0.40;0.40;;;20.90;46.60;;;;;;5017568;28;20278;-64
2021/01/31 05:00:50;;;;;;;0.68;0.40;;;20.90;46.60;;;;;;5024301;28;20519;-64
2021/01/31 05:03:17;;;;;;;0.50;0.47;;;20.90;46.60;;;;;;5027985;28;20112;-65
2021/01/31 05:05:58;;;;;;;0.85;0.60;;;20.80;46.60;;;;;;5027018;28;20435;-65
2021/01/31 05:08:27;;;;;;;0.80;0.50;;;20.80;46.60;;;;;;5027154;28;20030;-64
2021/01/31 05:10:56;;;;;;;;;;;20.80;46.60;;;;;;5040384;28;20091;-64
2021/01/31 05:13:48;;;;;;;0.70;0.50;;;20.90;46.70;;;;;;5028086;28;19947;-64
2021/01/31 05:16:15;;;;;;;0.63;0.50;;;20.90;46.70;;;;;;5023184;28;20029;-64
2021/01/31 05:18:51;;;;;;;1.02;0.40;;;20.80;46.70;;;;;;5027962;28;20112;-64
2021/01/31 05:21:22;;;;;;;0.85;0.52;;;20.80;46.70;;;;;;5026952;28;20043;-64
2021/01/31 05:23:54;;;;;;;0.40;0.40;;;20.80;46.70;;;;;;5026737;28;20119;-64
2021/01/31 05:26:19;;;;;;;0.45;0.40;;;20.80;46.70;;;;;;5025468;28;20033;-64
2021/01/31 05:28:51;;;;;;;1.00;0.60;;;20.80;46.70;;;;;;5022209;28;20025;-64
2021/01/31 05:31:19;;;;;;;0.40;0.40;;;20.80;46.80;;;;;;5027394;28;20049;-64
2021/01/31 05:33:53;;;;;;;0.40;0.40;;;20.80;46.80;;;;;;5027316;28;20047;-64
2021/01/31 05:36:21;;;;;;;1.02;0.60;;;20.80;46.80;;;;;;5026071;28;20053;-64
2021/01/31 05:38:49;;;;;;;0.40;0.40;;;20.80;46.80;;;;;;5026431;28;20587;-64
2021/01/31 05:41:43;;;;;;;0.65;0.43;;;20.80;46.80;;;;;;5025951;28;20618;-64
2021/01/31 05:44:14;;;;;;;0.40;0.40;;;20.80;46.80;;;;;;5027043;28;20091;-64
2021/01/31 05:46:49;;;;;;;0.45;0.40;;;20.80;46.80;;;;;;5026707;28;20100;-64
2021/01/31 05:49:46;;;;;;;0.77;0.60;;;20.80;46.80;;;;;;5025788;28;20034;-64
2021/01/31 05:52:21;;;;;;;0.70;0.50;;;20.80;46.80;;;;;;5025779;28;20025;-64
2021/01/31 05:54:50;;;;;;;0.43;0.40;;;20.80;46.80;;;;;;5026090;28;20022;-64
2021/01/31 05:57:27;;;;;;;0.53;0.40;;;20.70;46.80;;;;;;5045073;28;20034;-64
2021/01/31 05:59:53;;;;;;;1.02;0.45;;;20.70;46.80;;;;;;5022783;28;20093;-64
2021/01/31 06:02:28;;;;;;;0.88;0.47;;;20.70;46.80;;;;;;5026651;28;20121;-64
2021/01/31 06:05:11;;;;;;;0.32;0.32;;;20.70;46.80;;;;;;5026029;28;20041;-64
2021/01/31 06:07:39;;;;;;;0.40;0.40;;;20.70;46.80;;;;;;5022661;28;20099;-64
2021/01/31 06:10:17;;;;;;;0.70;0.60;;;20.70;46.80;;;;;;5026315;28;20597;-64
2021/01/31 06:12:45;;;;;;;0.50;0.40;;;20.70;46.80;;;;;;5027306;28;20428;-65
2021/01/31 06:15:29;;;;;;;0.40;0.40;;;20.70;46.90;;;;;;5025747;28;20053;-64
2021/01/31 06:18:02;;;;;;;0.60;0.50;;;20.70;46.90;;;;;;5023575;28;20037;-64
2021/01/31 06:20:35;;;;;;;0.40;0.40;;;20.70;46.80;;;;;;5022999;28;20025;-64
2021/01/31 06:23:03;;;;;;;0.50;0.50;;;20.70;46.90;;;;;;5025244;28;20125;-64
2021/01/31 06:25:29;;;;;;;0.57;0.50;;;20.70;46.90;;;;;;5020074;28;20451;-64
2021/01/31 06:28:11;;;;;;;0.70;0.52;;;20.70;46.90;;;;;;5023092;28;20033;-64
2021/01/31 06:31:14;;;;;;;0.90;0.50;;;20.70;46.90;;;;;;5030928;28;20026;-64
2021/01/31 06:33:42;;;;;;;0.40;0.40;;;20.70;46.90;;;;;;5016456;28;20517;-64
2021/01/31 06:36:22;;;;;;;0.52;0.40;;;20.70;46.90;;;;;;5024698;28;20149;-64
2021/01/31 06:39:12;;;;;;;1.58;0.50;;;20.70;46.90;;;;;;5022162;28;20073;-64
2021/01/31 06:42:06;;;;;;;0.57;0.47;;;20.70;46.90;;;;;;5021649;28;20025;-64
2021/01/31 06:44:51;;;;;;;0.50;0.50;;;20.70;46.90;;;;;;5025415;28;20117;-64
2021/01/31 06:47:32;;;;;;;0.60;0.45;;;20.70;46.90;;;;;;5025930;28;20333;-64
2021/01/31 06:50:03;;;;;;;0.40;0.40;;;20.70;46.90;;;;;;5023743;28;20136;-64
2021/01/31 06:52:57;;;;;;;0.68;0.50;;;20.70;47.00;;;;;;5039297;28;20607;-64
2021/01/31 06:55:25;;;;;;;0.52;0.40;;;20.60;46.90;;;;;;5007517;28;20041;-64
2021/01/31 06:58:00;;;;;;;0.60;0.43;;;20.60;46.90;;;;;;5029423;28;20018;-64
2021/01/31 07:00:53;;;;;;;0.63;0.50;;;20.60;46.90;;;;;;5029003;28;20095;-64
2021/01/31 07:03:28;;;;;;;0.47;0.47;;;20.60;47.00;;;;;;5033116;28;20441;-64
2021/01/31 07:06:11;;;;;;;0.47;0.47;;;20.60;46.90;;;;;;5026399;28;20890;-64
2021/01/31 07:08:42;;;;;;;0.63;0.40;;;20.60;46.90;;;;;;5030785;28;20468;-64
2021/01/31 07:11:18;;;;;;;0.77;0.60;;;20.60;47.00;;;;;;5029314;28;20034;-64
2021/01/31 07:13:44;;;;;;;0.75;0.50;;;20.60;47.00;;;;;;5031324;28;20033;-64
2021/01/31 07:16:18;;;;;;;0.65;0.55;;;20.60;47.00;;;;;;5031451;28;20037;-64
2021/01/31 07:18:53;;;;;;;0.50;0.47;;;20.60;47.00;;;;;;5030448;28;20033;-64
2021/01/31 07:21:26;;;;;;;0.55;0.50;;;20.60;47.00;;;;;;5031564;28;20147;-64
2021/01/31 07:23:55;;;;;;;0.80;0.55;;;20.60;47.10;;;;;;5032043;28;20033;-64
2021/01/31 07:26:39;;;;;;;0.98;0.60;;;20.60;47.10;;;;;;5030629;28;20448;-64
2021/01/31 07:29:12;;;;;;;0.90;0.57;;;20.60;47.10;;;;;;5027453;28;20041;-64
2021/01/31 07:31:49;;;;;;;1.17;0.63;;;20.50;47.00;;;;;;5031152;28;20057;-64
2021/01/31 07:34:24;;;;;;;1.05;0.60;;;20.50;47.10;;;;;;5029288;28;20477;-64
2021/01/31 07:37:07;;;;;;;1.27;0.50;;;20.50;47.10;;;;;;5030273;28;20036;-64
2021/01/31 07:39:45;;;;;;;0.85;0.70;;;20.50;47.10;;;;;;5030829;28;20680;-64
2021/01/31 07:42:13;;;;;;;1.33;0.70;;;20.50;47.20;;;;;;5063244;28;20380;-63
2021/01/31 07:44:40;;;;;;;0.90;0.50;;;20.50;47.10;;;;;;5030399;28;20116;-63
2021/01/31 07:47:06;;;;;;;0.98;0.57;;;20.50;47.10;;;;;;5029260;28;20025;-63
2021/01/31 07:49:53;;;;;;;1.70;0.70;;;20.50;47.10;;;;;;5030590;28;20079;-63
2021/01/31 07:52:20;;;;;;;0.93;0.60;;;20.50;47.10;;;;;;5031088;28;20029;-64
2021/01/31 07:54:46;;;;;;;1.00;0.60;;;20.50;47.20;;;;;;5029818;28;20034;-64
2021/01/31 07:57:25;;;;;;;0.65;0.55;;;20.50;47.20;;;;;;5032096;28;20059;-63
2021/01/31 07:59:52;;;;;;;1.77;0.68;;;20.50;47.20;;;;;;5031117;28;20546;-63
2021/01/31 08:02:55;;;;;;;1.42;0.80;;;20.50;47.20;;;;;;5031433;28;20357;-64
2021/01/31 08:05:46;;;;;;;1.10;0.60;;;20.50;47.20;;;;;;5008412;28;20037;-63
2021/01/31 08:08:31;;;;;;;1.20;0.77;;;20.50;47.30;;;;;;5026361;28;20084;-63
2021/01/31 08:10:57;;;;;;;1.33;0.70;;;20.50;47.30;;;;;;5027060;28;20110;-63
2021/01/31 08:13:37;;;;;;;0.50;0.50;;;20.50;47.30;;;;;;5029312;28;20033;-64
2021/01/31 08:16:41;;;;;;;1.02;0.60;;;20.50;47.30;;;;;;5028253;28;20029;-63
2021/01/31 08:19:10;;;;;;;0.80;0.60;;;20.50;47.30;;;;;;5026352;28;20463;-64
2021/01/31 08:21:55;;;;;;;1.20;0.73;;;20.40;47.30;;;;;;5027236;28;20491;-64
2021/01/31 08:25:02;;;;;;;2.65;0.70;;;20.40;47.30;;;;;;5027313;28;20033;-63
2021/01/31 08:27:42;;;;;;;1.08;0.60;;;20.40;47.30;;;;;;5008053;28;20038;-64
2021/01/31 08:30:21;;;;;;;1.42;0.52;;;20.40;47.30;;;;;;5023452;28;20037;-63
2021/01/31 08:33:01;;;;;;;1.08;0.60;;;20.40;47.30;;;;;;5047604;28;20052;-64
2021/01/31 08:35:49;;;;;;;1.33;0.70;;;20.40;47.30;;;;;;5027117;28;20068;-64
2021/01/31 08:38:21;;;;;;;1.13;0.70;;;20.40;47.40;;;;;;5022660;28;20086;-63
2021/01/31 08:43:48;;;;;;;2.95;0.70;;;20.40;47.40;;;;;;5027027;28;20523;-64
2021/01/31 08:46:31;;;;;;;0.80;0.60;;;20.40;47.40;;;;;;5026254;28;20116;-64
2021/01/31 08:48:57;;;;;;;1.45;0.70;;;20.40;47.40;;;;;;5027868;28;20071;-63
2021/01/31 08:51:28;;;;;;;1.38;0.60;;;20.40;47.50;;;;;;5027816;28;20057;-64
2021/01/31 08:54:09;;;;;;;0.88;0.70;;;20.40;47.40;;;;;;5026083;28;20041;-64
2021/01/31 08:56:41;;;;;;;1.92;0.70;;;20.40;47.50;;;;;;5026461;28;20368;-64
2021/01/31 08:59:16;;;;;;;1.33;0.65;;;20.40;47.50;;;;;;5028024;28;20087;-64
2021/01/31 09:01:44;;;;;;;1.27;0.70;;;20.40;47.50;;;;;;5028017;28;20124;-63
2021/01/31 09:04:15;;;;;;;1.15;0.60;;;20.30;47.40;;;;;;5027573;28;20614;-64
2021/01/31 09:06:44;;;;;;;1.13;0.63;;;20.30;47.40;;;;;;5025571;28;20022;-64
2021/01/31 09:09:21;;;;;;;1.17;0.80;;;20.30;47.50;;;;;;5023176;28;20137;-64
2021/01/31 09:11:58;;;;;;;0.60;0.60;;;20.30;47.50;;;;;;5023259;28;20571;-64
2021/01/31 09:14:27;;;;;;;0.70;0.60;;;20.30;47.50;;;;;;5024444;28;20030;-64
2021/01/31 09:17:28;;;;;;;1.90;0.73;;;20.40;47.60;;;;;;5026166;28;20028;-63
2021/01/31 09:20:06;;;;;;;1.15;0.70;;;20.30;47.50;;;;;;5020958;28;20057;-64
2021/01/31 09:22:32;;;;;;;0.70;0.60;;;20.30;47.50;;;;;;5018870;28;20277;-63
2021/01/31 09:25:01;;;;;;;1.10;0.60;;;20.30;47.50;;;;;;5021625;28;20033;-64
2021/01/31 09:27:29;;;;;;;1.27;0.70;;;20.30;47.50;;;;;;5011887;28;20590;-64
2021/01/31 09:29:59;;;;;;;1.63;0.75;;;20.30;47.50;;;;;;5019230;28;20068;-64
2021/01/31 09:32:37;;;;;;;0.82;0.65;;;20.30;47.60;;;;;;5022092;28;20061;-64
2021/01/31 09:35:07;;;;;;;1.65;0.80;;;20.30;47.60;;;;;;5048865;28;20053;-64
2021/01/31 09:37:32;;;;;;;;;;;20.30;47.60;;;;;;5047856;28;20091;-64
2021/01/31 09:40:02;;;;;;;0.90;0.63;;;20.30;47.50;;;;;;5018037;28;19913;-63
2021/01/31 09:42:32;;;;;;;1.33;0.52;;;20.30;47.50;;;;;;5022815;28;20034;-64
2021/01/31 09:45:03;;;;;;;1.17;0.60;;;20.30;47.60;;;;;;5023774;28;20433;-64
2021/01/31 09:47:29;;;;;;;1.17;0.55;;;20.30;47.60;;;;;;5024052;28;20033;-64
2021/01/31 09:50:03;;;;;;;0.75;0.60;;;20.30;47.60;;;;;;5018121;28;20030;-64
2021/01/31 09:52:29;;;;;;;1.35;0.60;;;20.30;47.60;;;;;;5021907;28;20099;-64
2021/01/31 09:54:55;;;;;;;1.48;0.80;;;20.30;47.60;;;;;;5021136;28;20044;-64
2021/01/31 09:57:21;;;;;;;1.52;0.60;;;20.30;47.60;;;;;;5022955;28;20112;-64
2021/01/31 09:59:47;;;;;;;1.33;0.63;;;20.30;47.60;;;;;;5024422;28;20237;-64
2021/01/31 10:02:15;;;;;;;1.35;0.70;;;20.20;47.60;;;;;;5024182;28;20049;-64
2021/01/31 10:04:43;;;;;;;1.13;0.60;;;20.30;47.70;;;;;;5023826;28;20052;-64
2021/01/31 10:07:12;;;;;;;0.88;0.55;;;20.20;47.60;;;;;;5018966;28;20464;-64
2021/01/31 10:09:41;;;;;;;0.73;0.52;;;20.20;47.60;;;;;;5023969;28;20035;-64
2021/01/31 10:12:30;;;;;;;1.15;0.70;;;20.20;48.20;;;;;;5023448;28;20129;-64
2021/01/31 10:15:08;;;;;;;2.08;0.80;;;20.20;47.70;;;;;;5024068;28;20130;-64
2021/01/31 10:17:42;;;;;;;1.05;0.70;;;20.20;47.70;;;;;;5022949;28;20416;-64
2021/01/31 10:20:28;;;;;;;1.20;0.70;;;20.20;47.70;;;;;;5020926;28;20418;-64
2021/01/31 10:22:56;;;;;;;1.20;0.70;;;20.20;47.70;;;;;;5023318;28;20539;-64
2021/01/31 10:25:23;;;;;;;1.45;0.60;;;20.20;48.20;;;;;;5020273;28;20454;-64
2021/01/31 10:27:49;;;;;;;2.00;0.70;;;20.20;48.20;;;;;;5020767;28;20242;-64
2021/01/31 10:30:37;;;;;;;1.00;0.80;;;20.20;47.70;;;;;;5023688;28;20030;-64
2021/01/31 10:33:04;;;;;;;0.90;0.70;;;20.20;47.80;;;;;;5023820;28;20040;-64
2021/01/31 10:35:30;;;;;;;2.38;0.60;;;20.20;47.80;;;;;;5020543;28;20392;-64
2021/01/31 10:37:56;;;;;;;1.33;0.80;;;20.20;47.80;;;;;;5022394;28;20021;-64
2021/01/31 10:40:22;;;;;;;1.65;0.82;;;20.20;47.80;;;;;;5021086;28;20430;-64
2021/01/31 10:42:48;;;;;;;1.55;0.70;;;20.20;47.80;;;;;;5021971;28;20021;-64
2021/01/31 10:45:19;;;;;;;1.23;0.70;;;20.20;47.80;;;;;;5021535;28;20451;-64
2021/01/31 10:47:45;;;;;;;1.17;0.80;;;20.20;47.80;;;;;;5022588;28;20389;-64
2021/01/31 10:50:13;;;;;;;0.98;0.70;;;20.20;47.80;;;;;;5022425;28;20036;-64
2021/01/31 10:52:40;;;;;;;0.75;0.70;;;20.20;47.80;;;;;;5024226;28;20025;-64
2021/01/31 10:55:06;;;;;;;1.33;0.80;;;20.20;47.80;;;;;;5022078;28;20128;-64
2021/01/31 10:57:31;;;;;;;0.80;0.60;;;20.20;47.80;;;;;;5022115;28;20026;-64
2021/01/31 10:59:57;;;;;;;1.02;0.70;;;20.20;47.80;;;;;;5021766;28;20033;-64
2021/01/31 11:02:23;;;;;;;0.85;0.70;;;20.20;47.80;;;;;;5023466;28;20038;-64
2021/01/31 11:04:48;;;;;;;1.42;0.65;;;20.20;47.80;;;;;;5023812;28;20269;-64
2021/01/31 11:07:14;;;;;;;1.50;0.77;;;20.10;47.80;;;;;;5017314;28;20120;-64
2021/01/31 11:09:40;;;;;;;1.25;0.63;;;20.20;47.80;;;;;;5021905;28;20116;-64
2021/01/31 11:12:06;;;;;;;1.35;0.75;;;20.20;47.90;;;;;;5022917;28;20037;-64
2021/01/31 11:14:32;;;;;;;1.10;0.70;;;20.10;47.80;;;;;;5021870;28;20095;-64
2021/01/31 11:16:59;;;;;;;2.28;0.80;;;20.10;47.80;;;;;;5017347;28;20018;-64
2021/01/31 11:19:25;;;;;;;0.88;0.60;;;20.10;47.80;;;;;;5019598;28;20363;-63
2021/01/31 11:21:50;;;;;;;1.83;0.80;;;20.10;47.80;;;;;;5006941;28;20100;-64
2021/01/31 11:24:16;;;;;;;1.13;0.70;;;20.10;47.80;;;;;;5013470;28;20146;-64
2021/01/31 11:26:41;;;;;;;1.83;0.95;;;20.10;47.90;;;;;;5016849;28;20427;-64
2021/01/31 11:29:07;;;;;;;1.10;0.70;;;20.20;48.00;;;;;;5012697;28;20149;-64
2021/01/31 11:31:32;;;;;;;1.08;0.70;;;20.20;48.00;;;;;;5017932;28;20087;-65
2021/01/31 11:33:58;;;;;;;1.48;0.70;;;20.30;48.00;;;;;;5020494;28;20037;-65
2021/01/31 11:36:24;;;;;;;1.00;0.70;;;20.30;48.00;;;;;;5019101;28;20045;-64
2021/01/31 11:38:50;;;;;;;1.48;0.77;;;20.30;47.90;;;;;;5018195;28;20029;-64
2021/01/31 11:41:17;;;;;;;1.08;0.80;;;20.40;48.00;;;;;;5022071;28;20101;-64
2021/01/31 11:43:43;;;;;;;0.98;0.60;;;20.40;47.90;;;;;;5024156;28;20091;-64
2021/01/31 11:46:09;;;;;;;1.10;0.70;;;20.50;48.00;;;;;;5025184;28;20547;-64
2021/01/31 11:48:34;;;;;;;0.70;0.60;;;20.50;48.00;;;;;;5019323;28;20038;-64
2021/01/31 11:51:00;;;;;;;1.15;0.77;;;20.60;48.00;;;;;;5011120;28;20583;-64
2021/01/31 11:53:26;;;;;;;1.23;0.70;;;20.60;47.90;;;;;;5015412;28;20169;-64
2021/01/31 11:55:52;;;;;;;0.90;0.70;;;20.70;48.10;;;;;;5017670;28;20055;-64
2021/01/31 11:58:18;;;;;;;1.00;0.70;;;20.70;48.00;;;;;;5011387;28;20148;-64
2021/01/31 12:00:43;;;;;;;1.23;0.70;;;20.70;48.00;;;;;;5008890;28;20108;-64
2021/01/31 12:03:10;;;;;;;1.23;0.80;;;20.80;48.00;;;;;;5013029;28;21834;-64
2021/01/31 12:05:36;;;;;;;1.33;0.70;;;20.70;47.90;;;;;;5014080;28;20024;-65
2021/01/31 12:08:03;;;;;;;0.90;0.65;;;20.80;48.00;;;;;;5018226;28;20022;-65
2021/01/31 12:10:31;;;;;;;1.45;0.80;;;20.80;48.10;;;;;;5041360;28;20037;-65
2021/01/31 12:12:57;;;;;;;2.00;0.80;;;20.70;48.10;;;;;;5016254;28;20104;-65
2021/01/31 12:15:23;;;;;;;1.20;0.75;;;20.70;48.10;;;;;;5023241;28;20432;-65
2021/01/31 12:17:48;;;;;;;1.00;0.70;;;20.70;48.10;;;;;;5018948;28;20661;-65
2021/01/31 12:20:16;;;;;;;0.73;0.70;;;20.70;48.10;;;;;;5016748;28;20095;-65
2021/01/31 12:22:42;;;;;;;1.02;0.70;;;20.70;48.10;;;;;;5010232;28;20109;-64
2021/01/31 12:25:13;;;;;;;1.17;0.80;;;20.70;48.10;;;;;;5007666;28;20029;-65
2021/01/31 12:27:39;;;;;;;1.55;0.70;;;20.70;48.30;;;;;;5022126;28;20160;-65
2021/01/31 12:30:05;;;;;;;1.42;0.90;;;20.70;48.20;;;;;;5050864;28;20112;-64
2021/01/31 12:32:33;;;;;;;0.85;0.63;;;20.70;48.30;;;;;;5024016;28;20117;-64
2021/01/31 12:34:59;;;;;;;1.02;0.80;;;20.80;48.30;;;;;;5023154;28;20040;-64
2021/01/31 12:37:25;;;;;;;1.50;0.90;;;20.80;48.20;;;;;;5016242;28;20029;-65
2021/01/31 12:39:50;;;;;;;0.93;0.77;;;20.80;48.10;;;;;;5020342;28;20066;-63
2021/01/31 12:42:16;;;;;;;1.17;0.80;;;20.80;48.10;;;;;;5022031;28;20026;-64
2021/01/31 12:44:42;;;;;;;1.88;0.80;;;20.80;48.10;;;;;;5018504;28;20029;-64
2021/01/31 12:47:12;;;;;;;1.05;0.80;;;20.80;48.20;;;;;;5021044;28;20095;-64
2021/01/31 12:49:37;;;;;;;1.17;0.80;;;20.80;48.20;;;;;;5017749;28;20021;-63
2021/01/31 12:52:04;;;;;;;1.42;0.80;;;20.80;48.20;;;;;;5017370;28;20562;-63
2021/01/31 12:54:30;;;;;;;0.90;0.70;;;20.80;48.20;;;;;;5003173;28;20033;-63
2021/01/31 12:56:55;;;;;;;2.53;0.90;;;20.80;48.20;;;;;;5019437;28;20036;-64
2021/01/31 12:59:21;;;;;;;1.17;0.80;;;20.80;48.20;;;;;;5021848;28;20484;-64
2021/01/31 13:01:46;;;;;;;1.42;0.80;;;20.80;48.20;;;;;;5020365;28;20036;-64
2021/01/31 13:04:13;;;;;;;1.42;0.82;;;20.80;48.20;;;;;;5020621;28;20073;-64
2021/01/31 13:06:39;;;;;;;1.13;0.88;;;20.80;48.20;;;;;;5014179;28;20396;-64
2021/01/31 13:09:05;;;;;;;1.42;0.80;;;20.80;48.30;;;;;;5022899;28;20060;-64
2021/01/31 13:11:31;;;;;;;1.55;0.98;;;20.80;48.20;;;;;;5020985;28;20030;-65
2021/01/31 13:13:56;;;;;;;1.30;0.82;;;20.80;48.80;;;;;;5019878;28;20490;-64